ENGM/OSL METAR and TAF weather

Enter ICAO airport designator
Station Type Date Time Source
ENGM METAR 2020/11/27 14:50 UTC NOAA

ENGM 271450Z VRB01KT 2400 0450W R19R/P2000N R01R/0650N R19L/0500D R01L/P2000N FZFG BR VV002 M04/M04 Q1022 TEMPO 0500 FZFG VV001


Station Type Date Time Source
ENGM Decoded METAR 2020/11/27 14:50 UTC NOAA

Oslo / Gardermoen, Norway (ENGM) 60-12N 011-05E 204M
Nov 27, 2020 - 09:50 AM EST / 2020.11.27 1450 UTC
Wind: Variable at 1 MPH (1 KT):0
Visibility: 1 mile(s):0
Sky conditions: obscured
Weather: freezing fog; mist
Temperature: 24 F (-4 C)
Dew Point: 24 F (-4 C)
Relative Humidity: 100%
Pressure (altimeter): 30.18 in. Hg (1022 hPa)
ob: ENGM 271450Z VRB01KT 2400 0450W R19R/P2000N R01R/0650N R19L/0500D R01L/P2000N FZFG BR VV002 M04/M04 Q1022 TEMPO 0500 FZFG VV001
cycle: 15

Station Type Date Time Source
ENGM TAF 2020/11/27 12:57 UTC NOAA

TAF ENGM 271100Z 2712/2812 VRB03KT 0300 FZFG VV001 PROB40
TEMPO 2712/2812 CAVOK

Example: see airport list